sensor_id;sensor_type;location;lat;lon;timestamp;temperature;humidity
18502;DHT22;68437;52.236;5.710;2024-03-23T00:55:39;6.70;99.90
18502;DHT22;68437;52.236;5.710;2024-03-23T00:58:05;6.60;99.90
18502;DHT22;68437;52.236;5.710;2024-03-23T01:00:31;6.60;99.90
18502;DHT22;68437;52.236;5.710;2024-03-23T01:02:58;6.50;99.90
18502;DHT22;68437;52.236;5.710;2024-03-23T01:05:24;6.50;99.90
18502;DHT22;68437;52.236;5.710;2024-03-23T01:07:51;6.40;99.90
18502;DHT22;68437;52.236;5.710;2024-03-23T01:10:17;6.40;99.90
18502;DHT22;68437;52.236;5.710;2024-03-23T01:12:45;6.30;99.90
18502;DHT22;68437;52.236;5.710;2024-03-23T01:15:11;6.30;99.90
18502;DHT22;68437;52.236;5.710;2024-03-23T01:17:38;6.30;99.90
18502;DHT22;68437;52.236;5.710;2024-03-23T01:20:04;6.20;99.90
18502;DHT22;68437;52.236;5.710;2024-03-23T01:22:32;6.20;99.90
18502;DHT22;68437;52.236;5.710;2024-03-23T01:24:58;6.10;99.90
18502;DHT22;68437;52.236;5.710;2024-03-23T01:27:25;6.10;99.90
18502;DHT22;68437;52.236;5.710;2024-03-23T01:29:52;6.10;99.90
18502;DHT22;68437;52.236;5.710;2024-03-23T01:32:20;6.00;99.90
18502;DHT22;68437;52.236;5.710;2024-03-23T01:34:48;6.00;99.90
18502;DHT22;68437;52.236;5.710;2024-03-23T01:37:15;5.90;99.90
18502;DHT22;68437;52.236;5.710;2024-03-23T01:39:40;5.90;99.90
18502;DHT22;68437;52.236;5.710;2024-03-23T01:42:09;5.80;99.90
18502;DHT22;68437;52.236;5.710;2024-03-23T01:44:36;5.70;99.90
18502;DHT22;68437;52.236;5.710;2024-03-23T01:47:06;5.70;99.90
18502;DHT22;68437;52.236;5.710;2024-03-23T01:49:32;5.70;99.90
18502;DHT22;68437;52.236;5.710;2024-03-23T01:52:00;5.60;99.90
18502;DHT22;68437;52.236;5.710;2024-03-23T01:54:25;5.50;99.90
18502;DHT22;68437;52.236;5.710;2024-03-23T01:56:53;5.40;99.90
18502;DHT22;68437;52.236;5.710;2024-03-23T01:59:19;5.40;99.90
18502;DHT22;68437;52.236;5.710;2024-03-23T02:01:46;5.30;99.90
18502;DHT22;68437;52.236;5.710;2024-03-23T02:04:13;5.20;99.90
18502;DHT22;68437;52.236;5.710;2024-03-23T02:06:40;5.20;99.90
18502;DHT22;68437;52.236;5.710;2024-03-23T02:09:06;5.20;99.90
18502;DHT22;68437;52.236;5.710;2024-03-23T02:11:33;5.20;99.90
18502;DHT22;68437;52.236;5.710;2024-03-23T02:13:59;5.20;99.90
18502;DHT22;68437;52.236;5.710;2024-03-23T02:16:26;5.20;99.90
18502;DHT22;68437;52.236;5.710;2024-03-23T02:18:52;5.20;99.90
18502;DHT22;68437;52.236;5.710;2024-03-23T02:21:20;5.10;99.90
18502;DHT22;68437;52.236;5.710;2024-03-23T02:23:47;5.00;99.90
18502;DHT22;68437;52.236;5.710;2024-03-23T02:26:14;5.00;99.90
18502;DHT22;68437;52.236;5.710;2024-03-23T02:28:40;4.90;99.90
18502;DHT22;68437;52.236;5.710;2024-03-23T02:31:07;4.90;99.90
18502;DHT22;68437;52.236;5.710;2024-03-23T02:33:34;4.80;99.90
18502;DHT22;68437;52.236;5.710;2024-03-23T02:36:04;4.80;99.90
18502;DHT22;68437;52.236;5.710;2024-03-23T02:38:31;4.80;99.90
18502;DHT22;68437;52.236;5.710;2024-03-23T02:41:02;4.70;99.90
18502;DHT22;68437;52.236;5.710;2024-03-23T02:43:29;4.70;99.90
18502;DHT22;68437;52.236;5.710;2024-03-23T02:45:55;4.60;99.90
18502;DHT22;68437;52.236;5.710;2024-03-23T02:48:24;4.60;99.90
18502;DHT22;68437;52.236;5.710;2024-03-23T02:50:49;4.50;99.90
18502;DHT22;68437;52.236;5.710;2024-03-23T02:53:16;4.50;99.90
18502;DHT22;68437;52.236;5.710;2024-03-23T02:55:43;4.50;99.90
18502;DHT22;68437;52.236;5.710;2024-03-23T02:58:11;4.50;99.90
18502;DHT22;68437;52.236;5.710;2024-03-23T03:00:37;4.40;99.90
18502;DHT22;68437;52.236;5.710;2024-03-23T03:03:04;4.30;99.90
18502;DHT22;68437;52.236;5.710;2024-03-23T03:05:30;4.30;99.90
18502;DHT22;68437;52.236;5.710;2024-03-23T03:08:00;4.30;99.90
18502;DHT22;68437;52.236;5.710;2024-03-23T03:10:25;4.20;99.90
18502;DHT22;68437;52.236;5.710;2024-03-23T03:12:52;4.10;99.90
18502;DHT22;68437;52.236;5.710;2024-03-23T03:15:19;4.20;99.90
18502;DHT22;68437;52.236;5.710;2024-03-23T03:17:49;4.20;99.90
18502;DHT22;68437;52.236;5.710;2024-03-23T03:20:15;4.30;99.90
18502;DHT22;68437;52.236;5.710;2024-03-23T03:22:43;4.30;99.90
18502;DHT22;68437;52.236;5.710;2024-03-23T03:25:09;4.40;99.90
18502;DHT22;68437;52.236;5.710;2024-03-23T03:27:37;4.40;99.90
18502;DHT22;68437;52.236;5.710;2024-03-23T03:30:03;4.40;99.90
18502;DHT22;68437;52.236;5.710;2024-03-23T03:32:32;4.40;99.90
18502;DHT22;68437;52.236;5.710;2024-03-23T03:34:58;4.40;99.90
18502;DHT22;68437;52.236;5.710;2024-03-23T03:37:25;4.40;99.90
18502;DHT22;68437;52.236;5.710;2024-03-23T03:39:51;4.30;99.90
18502;DHT22;68437;52.236;5.710;2024-03-23T03:42:18;4.30;99.90
18502;DHT22;68437;52.236;5.710;2024-03-23T03:44:44;4.40;99.90
18502;DHT22;68437;52.236;5.710;2024-03-23T03:47:10;4.40;99.90
18502;DHT22;68437;52.236;5.710;2024-03-23T03:49:38;4.40;99.90
18502;DHT22;68437;52.236;5.710;2024-03-23T03:52:05;4.50;99.90
18502;DHT22;68437;52.236;5.710;2024-03-23T03:54:33;4.40;99.90
18502;DHT22;68437;52.236;5.710;2024-03-23T03:57:03;4.30;99.90
18502;DHT22;68437;52.236;5.710;2024-03-23T03:59:29;4.30;99.90
18502;DHT22;68437;52.236;5.710;2024-03-23T04:01:58;4.20;99.90
18502;DHT22;68437;52.236;5.710;2024-03-23T04:04:24;4.10;99.90
18502;DHT22;68437;52.236;5.710;2024-03-23T04:06:58;4.10;99.90
18502;DHT22;68437;52.236;5.710;2024-03-23T04:09:24;4.00;99.90
18502;DHT22;68437;52.236;5.710;2024-03-23T04:11:51;4.00;99.90
18502;DHT22;68437;52.236;5.710;2024-03-23T04:14:16;4.00;99.90
18502;DHT22;68437;52.236;5.710;2024-03-23T04:16:43;3.90;99.90
18502;DHT22;68437;52.236;5.710;2024-03-23T04:19:09;3.90;99.90
18502;DHT22;68437;52.236;5.710;2024-03-23T04:21:36;3.90;99.90
18502;DHT22;68437;52.236;5.710;2024-03-23T04:24:04;3.80;99.90
18502;DHT22;68437;52.236;5.710;2024-03-23T04:26:40;3.90;99.90
18502;DHT22;68437;52.236;5.710;2024-03-23T04:29:06;3.90;99.90
18502;DHT22;68437;52.236;5.710;2024-03-23T04:31:33;3.90;99.90
18502;DHT22;68437;52.236;5.710;2024-03-23T04:34:00;3.90;99.90
18502;DHT22;68437;52.236;5.710;2024-03-23T04:36:27;3.90;99.90
18502;DHT22;68437;52.236;5.710;2024-03-23T04:38:53;3.80;99.90
18502;DHT22;68437;52.236;5.710;2024-03-23T04:41:21;3.70;99.90
18502;DHT22;68437;52.236;5.710;2024-03-23T04:43:48;3.70;99.90
18502;DHT22;68437;52.236;5.710;2024-03-23T04:46:15;3.60;99.90
18502;DHT22;68437;52.236;5.710;2024-03-23T04:48:42;3.60;99.90
18502;DHT22;68437;52.236;5.710;2024-03-23T04:51:10;3.60;99.90
18502;DHT22;68437;52.236;5.710;2024-03-23T04:53:37;3.60;99.90
18502;DHT22;68437;52.236;5.710;2024-03-23T04:56:04;3.60;99.90
18502;DHT22;68437;52.236;5.710;2024-03-23T04:58:32;3.60;99.90
18502;DHT22;68437;52.236;5.710;2024-03-23T05:00:58;3.70;99.90
18502;DHT22;68437;52.236;5.710;2024-03-23T05:03:25;3.80;99.90
18502;DHT22;68437;52.236;5.710;2024-03-23T05:05:51;3.80;99.90
18502;DHT22;68437;52.236;5.710;2024-03-23T05:08:18;3.90;99.90
18502;DHT22;68437;52.236;5.710;2024-03-23T05:10:44;3.90;99.90
18502;DHT22;68437;52.236;5.710;2024-03-23T05:13:11;4.00;99.90
18502;DHT22;68437;52.236;5.710;2024-03-23T05:15:38;4.00;99.90
18502;DHT22;68437;52.236;5.710;2024-03-23T05:18:06;4.00;99.90
18502;DHT22;68437;52.236;5.710;2024-03-23T05:20:32;4.00;99.90
18502;DHT22;68437;52.236;5.710;2024-03-23T05:22:59;4.00;99.90
18502;DHT22;68437;52.236;5.710;2024-03-23T05:25:25;3.90;99.90
18502;DHT22;68437;52.236;5.710;2024-03-23T05:27:51;3.90;99.90
18502;DHT22;68437;52.236;5.710;2024-03-23T05:30:17;3.90;99.90
18502;DHT22;68437;52.236;5.710;2024-03-23T05:32:45;3.90;99.90
18502;DHT22;68437;52.236;5.710;2024-03-23T05:35:11;3.80;99.90
18502;DHT22;68437;52.236;5.710;2024-03-23T05:37:38;3.80;99.90
18502;DHT22;68437;52.236;5.710;2024-03-23T05:40:05;3.80;99.90
18502;DHT22;68437;52.236;5.710;2024-03-23T05:42:32;3.80;99.90
18502;DHT22;68437;52.236;5.710;2024-03-23T05:44:58;3.80;99.90
18502;DHT22;68437;52.236;5.710;2024-03-23T05:47:24;3.80;99.90
18502;DHT22;68437;52.236;5.710;2024-03-23T05:49:52;3.80;99.90
18502;DHT22;68437;52.236;5.710;2024-03-23T05:52:18;4.50;99.90
18502;DHT22;68437;52.236;5.710;2024-03-23T05:54:46;3.90;99.90
18502;DHT22;68437;52.236;5.710;2024-03-23T05:57:13;4.00;99.90
18502;DHT22;68437;52.236;5.710;2024-03-23T05:59:41;4.00;99.90
18502;DHT22;68437;52.236;5.710;2024-03-23T06:02:08;4.10;99.90
18502;DHT22;68437;52.236;5.710;2024-03-23T06:04:36;4.10;99.90
18502;DHT22;68437;52.236;5.710;2024-03-23T06:07:04;4.20;99.90
18502;DHT22;68437;52.236;5.710;2024-03-23T06:09:31;4.40;99.90
18502;DHT22;68437;52.236;5.710;2024-03-23T06:11:58;4.50;99.90
18502;DHT22;68437;52.236;5.710;2024-03-23T06:14:25;4.50;99.90
18502;DHT22;68437;52.236;5.710;2024-03-23T06:16:52;4.50;99.90
18502;DHT22;68437;52.236;5.710;2024-03-23T06:19:18;4.60;99.90
18502;DHT22;68437;52.236;5.710;2024-03-23T06:21:44;4.50;99.90
18502;DHT22;68437;52.236;5.710;2024-03-23T06:24:12;4.50;99.90
18502;DHT22;68437;52.236;5.710;2024-03-23T06:26:39;4.50;99.90
18502;DHT22;68437;52.236;5.710;2024-03-23T06:29:05;4.50;99.90
18502;DHT22;68437;52.236;5.710;2024-03-23T06:31:31;4.50;99.90
18502;DHT22;68437;52.236;5.710;2024-03-23T06:33:57;4.50;99.90
18502;DHT22;68437;52.236;5.710;2024-03-23T06:36:24;4.50;99.90
18502;DHT22;68437;52.236;5.710;2024-03-23T06:38:50;4.50;99.90
18502;DHT22;68437;52.236;5.710;2024-03-23T06:41:19;4.50;99.90
18502;DHT22;68437;52.236;5.710;2024-03-23T06:43:45;4.60;99.90
18502;DHT22;68437;52.236;5.710;2024-03-23T06:46:12;4.60;99.90
18502;DHT22;68437;52.236;5.710;2024-03-23T06:48:38;4.70;99.90
18502;DHT22;68437;52.236;5.710;2024-03-23T06:51:05;4.80;99.90
18502;DHT22;68437;52.236;5.710;2024-03-23T06:53:32;4.80;99.90
18502;DHT22;68437;52.236;5.710;2024-03-23T06:55:59;4.90;99.90
18502;DHT22;68437;52.236;5.710;2024-03-23T06:58:26;5.00;99.90
18502;DHT22;68437;52.236;5.710;2024-03-23T07:00:53;5.00;99.90
18502;DHT22;68437;52.236;5.710;2024-03-23T07:03:19;5.10;99.90
18502;DHT22;68437;52.236;5.710;2024-03-23T07:05:47;5.10;99.90
18502;DHT22;68437;52.236;5.710;2024-03-23T07:08:12;5.20;99.90
18502;DHT22;68437;52.236;5.710;2024-03-23T07:10:44;5.30;99.90
18502;DHT22;68437;52.236;5.710;2024-03-23T07:13:10;5.40;99.90
18502;DHT22;68437;52.236;5.710;2024-03-23T07:15:38;5.40;99.90
18502;DHT22;68437;52.236;5.710;2024-03-23T07:18:04;5.60;99.90
18502;DHT22;68437;52.236;5.710;2024-03-23T07:20:31;5.60;99.90
18502;DHT22;68437;52.236;5.710;2024-03-23T07:22:57;5.70;99.90
18502;DHT22;68437;52.236;5.710;2024-03-23T07:25:24;5.70;99.90
18502;DHT22;68437;52.236;5.710;2024-03-23T07:27:52;5.80;99.90
18502;DHT22;68437;52.236;5.710;2024-03-23T07:30:19;5.90;99.90
18502;DHT22;68437;52.236;5.710;2024-03-23T07:32:46;6.00;99.90
18502;DHT22;68437;52.236;5.710;2024-03-23T07:35:14;6.10;99.90
18502;DHT22;68437;52.236;5.710;2024-03-23T07:37:42;6.20;99.90
18502;DHT22;68437;52.236;5.710;2024-03-23T07:40:09;6.20;99.90
18502;DHT22;68437;52.236;5.710;2024-03-23T07:42:37;6.30;99.90
18502;DHT22;68437;52.236;5.710;2024-03-23T07:45:03;6.30;99.90
18502;DHT22;68437;52.236;5.710;2024-03-23T07:47:30;6.40;99.90
18502;DHT22;68437;52.236;5.710;2024-03-23T07:49:58;6.50;99.90
18502;DHT22;68437;52.236;5.710;2024-03-23T07:52:28;6.60;99.90
18502;DHT22;68437;52.236;5.710;2024-03-23T07:54:54;6.60;99.90
18502;DHT22;68437;52.236;5.710;2024-03-23T07:57:20;6.70;99.90
18502;DHT22;68437;52.236;5.710;2024-03-23T07:59:46;6.90;99.90
18502;DHT22;68437;52.236;5.710;2024-03-23T08:02:13;6.90;99.90
18502;DHT22;68437;52.236;5.710;2024-03-23T08:04:39;6.90;99.90
18502;DHT22;68437;52.236;5.710;2024-03-23T08:07:07;7.10;99.90
18502;DHT22;68437;52.236;5.710;2024-03-23T08:09:33;7.20;99.90
18502;DHT22;68437;52.236;5.710;2024-03-23T08:12:00;7.30;99.90
18502;DHT22;68437;52.236;5.710;2024-03-23T08:14:26;7.40;99.90
18502;DHT22;68437;52.236;5.710;2024-03-23T08:16:54;7.40;99.90
18502;DHT22;68437;52.236;5.710;2024-03-23T08:19:20;7.50;99.90
18502;DHT22;68437;52.236;5.710;2024-03-23T08:21:47;7.50;99.90
18502;DHT22;68437;52.236;5.710;2024-03-23T08:24:14;7.50;99.90
18502;DHT22;68437;52.236;5.710;2024-03-23T08:26:41;7.60;99.90
18502;DHT22;68437;52.236;5.710;2024-03-23T08:29:07;7.70;99.90
18502;DHT22;68437;52.236;5.710;2024-03-23T08:31:33;7.60;99.90
18502;DHT22;68437;52.236;5.710;2024-03-23T08:33:59;7.60;99.90
18502;DHT22;68437;52.236;5.710;2024-03-23T08:36:26;7.40;99.90
18502;DHT22;68437;52.236;5.710;2024-03-23T08:38:52;7.20;99.90
18502;DHT22;68437;52.236;5.710;2024-03-23T08:41:21;7.10;99.90
18502;DHT22;68437;52.236;5.710;2024-03-23T08:43:47;7.20;99.90
18502;DHT22;68437;52.236;5.710;2024-03-23T08:46:15;7.10;99.90
18502;DHT22;68437;52.236;5.710;2024-03-23T08:48:43;7.00;99.90
18502;DHT22;68437;52.236;5.710;2024-03-23T08:51:12;7.00;99.90
18502;DHT22;68437;52.236;5.710;2024-03-23T08:53:38;7.00;99.90
18502;DHT22;68437;52.236;5.710;2024-03-23T08:56:06;7.10;99.90
18502;DHT22;68437;52.236;5.710;2024-03-23T08:58:38;7.10;99.90
18502;DHT22;68437;52.236;5.710;2024-03-23T09:01:07;7.20;99.90
18502;DHT22;68437;52.236;5.710;2024-03-23T09:03:33;7.30;99.90
18502;DHT22;68437;52.236;5.710;2024-03-23T09:06:02;7.40;99.90
18502;DHT22;68437;52.236;5.710;2024-03-23T09:08:31;7.40;99.90
18502;DHT22;68437;52.236;5.710;2024-03-23T09:11:03;7.50;99.90
18502;DHT22;68437;52.236;5.710;2024-03-23T09:13:31;7.60;99.90
18502;DHT22;68437;52.236;5.710;2024-03-23T09:15:59;7.70;99.90
18502;DHT22;68437;52.236;5.710;2024-03-23T09:18:25;7.80;99.90
18502;DHT22;68437;52.236;5.710;2024-03-23T09:20:52;7.90;99.90
18502;DHT22;68437;52.236;5.710;2024-03-23T09:23:18;8.00;99.90
18502;DHT22;68437;52.236;5.710;2024-03-23T09:25:45;8.00;99.90
18502;DHT22;68437;52.236;5.710;2024-03-23T09:28:11;7.90;99.90
18502;DHT22;68437;52.236;5.710;2024-03-23T09:30:38;7.80;99.90
18502;DHT22;68437;52.236;5.710;2024-03-23T09:33:09;7.80;99.90
18502;DHT22;68437;52.236;5.710;2024-03-23T09:35:37;7.80;99.90
18502;DHT22;68437;52.236;5.710;2024-03-23T09:38:03;7.80;99.90
18502;DHT22;68437;52.236;5.710;2024-03-23T09:40:30;8.00;99.90
18502;DHT22;68437;52.236;5.710;2024-03-23T09:42:57;8.00;99.90
18502;DHT22;68437;52.236;5.710;2024-03-23T09:45:27;8.10;99.90
18502;DHT22;68437;52.236;5.710;2024-03-23T09:47:53;8.10;99.90
18502;DHT22;68437;52.236;5.710;2024-03-23T09:50:22;8.00;99.90
18502;DHT22;68437;52.236;5.710;2024-03-23T09:52:48;7.80;99.90
18502;DHT22;68437;52.236;5.710;2024-03-23T09:55:15;7.80;99.90
18502;DHT22;68437;52.236;5.710;2024-03-23T09:57:41;7.80;99.90
18502;DHT22;68437;52.236;5.710;2024-03-23T10:00:09;7.70;99.90
18502;DHT22;68437;52.236;5.710;2024-03-23T10:02:35;7.80;99.90
18502;DHT22;68437;52.236;5.710;2024-03-23T10:05:02;7.80;99.90
18502;DHT22;68437;52.236;5.710;2024-03-23T10:07:30;7.70;99.90
18502;DHT22;68437;52.236;5.710;2024-03-23T10:09:57;7.50;99.90
18502;DHT22;68437;52.236;5.710;2024-03-23T10:12:24;7.00;99.90
18502;DHT22;68437;52.236;5.710;2024-03-23T10:14:50;6.60;99.90
18502;DHT22;68437;52.236;5.710;2024-03-23T10:17:18;6.40;99.90
18502;DHT22;68437;52.236;5.710;2024-03-23T10:19:45;6.20;99.90
18502;DHT22;68437;52.236;5.710;2024-03-23T10:22:15;6.30;99.90
18502;DHT22;68437;52.236;5.710;2024-03-23T10:24:43;6.40;99.90
18502;DHT22;68437;52.236;5.710;2024-03-23T10:27:09;6.40;99.90
18502;DHT22;68437;52.236;5.710;2024-03-23T10:29:36;6.40;99.90
18502;DHT22;68437;52.236;5.710;2024-03-23T10:32:09;6.30;99.90
18502;DHT22;68437;52.236;5.710;2024-03-23T10:34:35;6.40;99.90
18502;DHT22;68437;52.236;5.710;2024-03-23T10:37:03;6.70;99.90
18502;DHT22;68437;52.236;5.710;2024-03-23T10:39:31;7.10;99.90
18502;DHT22;68437;52.236;5.710;2024-03-23T10:42:01;7.40;99.90
18502;DHT22;68437;52.236;5.710;2024-03-23T10:44:31;7.80;99.90
18502;DHT22;68437;52.236;5.710;2024-03-23T10:46:58;8.10;99.90
18502;DHT22;68437;52.236;5.710;2024-03-23T10:49:26;8.40;99.90
18502;DHT22;68437;52.236;5.710;2024-03-23T10:51:56;8.50;99.90
18502;DHT22;68437;52.236;5.710;2024-03-23T10:54:24;8.60;99.90
18502;DHT22;68437;52.236;5.710;2024-03-23T10:56:56;8.70;99.90
18502;DHT22;68437;52.236;5.710;2024-03-23T10:59:25;8.80;99.90
18502;DHT22;68437;52.236;5.710;2024-03-23T11:01:55;9.00;99.90
18502;DHT22;68437;52.236;5.710;2024-03-23T11:04:31;9.10;99.90
18502;DHT22;68437;52.236;5.710;2024-03-23T11:06:58;9.20;99.90
18502;DHT22;68437;52.236;5.710;2024-03-23T11:09:40;9.30;99.90
18502;DHT22;68437;52.236;5.710;2024-03-23T11:12:26;9.30;99.90
18502;DHT22;68437;52.236;5.710;2024-03-23T11:14:54;9.00;99.90
18502;DHT22;68437;52.236;5.710;2024-03-23T11:17:22;9.20;99.90
18502;DHT22;68437;52.236;5.710;2024-03-23T11:19:58;9.60;99.90
18502;DHT22;68437;52.236;5.710;2024-03-23T11:22:44;9.80;99.90
18502;DHT22;68437;52.236;5.710;2024-03-23T11:25:19;9.90;99.90
18502;DHT22;68437;52.236;5.710;2024-03-23T11:27:50;9.70;99.90
18502;DHT22;68437;52.236;5.710;2024-03-23T11:30:19;9.60;99.90
18502;DHT22;68437;52.236;5.710;2024-03-23T11:32:48;9.70;99.90
18502;DHT22;68437;52.236;5.710;2024-03-23T11:35:27;9.80;99.90
18502;DHT22;68437;52.236;5.710;2024-03-23T11:38:04;9.80;99.90
18502;DHT22;68437;52.236;5.710;2024-03-23T11:40:30;10.20;99.90
18502;DHT22;68437;52.236;5.710;2024-03-23T11:42:58;10.40;99.90
18502;DHT22;68437;52.236;5.710;2024-03-23T11:45:26;10.20;99.90
18502;DHT22;68437;52.236;5.710;2024-03-23T11:48:03;10.20;99.90
18502;DHT22;68437;52.236;5.710;2024-03-23T11:50:28;10.20;99.90
18502;DHT22;68437;52.236;5.710;2024-03-23T11:53:07;10.50;99.90
18502;DHT22;68437;52.236;5.710;2024-03-23T11:55:39;10.60;99.90
18502;DHT22;68437;52.236;5.710;2024-03-23T11:58:06;10.40;99.90
18502;DHT22;68437;52.236;5.710;2024-03-23T12:00:34;10.20;99.90
18502;DHT22;68437;52.236;5.710;2024-03-23T12:03:01;10.30;99.90
18502;DHT22;68437;52.236;5.710;2024-03-23T12:05:28;10.60;99.90
18502;DHT22;68437;52.236;5.710;2024-03-23T12:07:54;10.70;99.90
18502;DHT22;68437;52.236;5.710;2024-03-23T12:10:20;10.70;99.90
18502;DHT22;68437;52.236;5.710;2024-03-23T12:12:59;10.80;99.90
18502;DHT22;68437;52.236;5.710;2024-03-23T12:15:25;10.60;99.90
18502;DHT22;68437;52.236;5.710;2024-03-23T12:18:06;10.60;99.90
18502;DHT22;68437;52.236;5.710;2024-03-23T12:20:34;10.80;99.90
18502;DHT22;68437;52.236;5.710;2024-03-23T12:23:08;11.00;99.90
18502;DHT22;68437;52.236;5.710;2024-03-23T12:25:35;11.30;99.90
18502;DHT22;68437;52.236;5.710;2024-03-23T12:28:02;11.30;99.90
18502;DHT22;68437;52.236;5.710;2024-03-23T12:30:28;11.50;99.90
18502;DHT22;68437;52.236;5.710;2024-03-23T12:32:56;11.20;99.90
18502;DHT22;68437;52.236;5.710;2024-03-23T12:35:22;11.20;99.90
18502;DHT22;68437;52.236;5.710;2024-03-23T12:37:49;11.10;99.90
18502;DHT22;68437;52.236;5.710;2024-03-23T12:40:15;10.80;99.90
18502;DHT22;68437;52.236;5.710;2024-03-23T12:42:42;11.00;99.90
18502;DHT22;68437;52.236;5.710;2024-03-23T12:45:11;11.10;99.90
18502;DHT22;68437;52.236;5.710;2024-03-23T12:47:38;10.80;99.90
18502;DHT22;68437;52.236;5.710;2024-03-23T12:50:07;11.20;99.90
18502;DHT22;68437;52.236;5.710;2024-03-23T12:52:33;11.10;99.90
18502;DHT22;68437;52.236;5.710;2024-03-23T12:55:00;10.70;99.90
18502;DHT22;68437;52.236;5.710;2024-03-23T12:57:26;10.40;99.90
18502;DHT22;68437;52.236;5.710;2024-03-23T12:59:53;10.30;99.90
18502;DHT22;68437;52.236;5.710;2024-03-23T13:02:19;10.30;99.90
18502;DHT22;68437;52.236;5.710;2024-03-23T13:04:49;10.40;99.90
18502;DHT22;68437;52.236;5.710;2024-03-23T13:07:17;10.70;99.90
18502;DHT22;68437;52.236;5.710;2024-03-23T13:09:46;11.10;99.90
18502;DHT22;68437;52.236;5.710;2024-03-23T13:12:12;11.50;99.90
18502;DHT22;68437;52.236;5.710;2024-03-23T13:14:39;11.40;99.90
18502;DHT22;68437;52.236;5.710;2024-03-23T13:17:06;11.60;99.90
18502;DHT22;68437;52.236;5.710;2024-03-23T13:19:34;11.30;99.90
18502;DHT22;68437;52.236;5.710;2024-03-23T13:22:00;10.70;99.90
18502;DHT22;68437;52.236;5.710;2024-03-23T13:24:29;9.90;99.90
18502;DHT22;68437;52.236;5.710;2024-03-23T13:26:56;9.60;99.90
18502;DHT22;68437;52.236;5.710;2024-03-23T13:29:23;9.70;99.90
18502;DHT22;68437;52.236;5.710;2024-03-23T13:31:50;9.60;99.90
18502;DHT22;68437;52.236;5.710;2024-03-23T13:34:17;9.40;99.90
18502;DHT22;68437;52.236;5.710;2024-03-23T13:36:44;9.10;99.90
18502;DHT22;68437;52.236;5.710;2024-03-23T13:39:11;9.10;99.90
18502;DHT22;68437;52.236;5.710;2024-03-23T13:41:43;9.00;99.90
18502;DHT22;68437;52.236;5.710;2024-03-23T13:44:11;9.00;99.90
18502;DHT22;68437;52.236;5.710;2024-03-23T13:46:37;9.10;99.90
18502;DHT22;68437;52.236;5.710;2024-03-23T13:49:04;9.10;99.90
18502;DHT22;68437;52.236;5.710;2024-03-23T13:51:30;9.10;99.90
18502;DHT22;68437;52.236;5.710;2024-03-23T13:53:57;9.40;99.90
18502;DHT22;68437;52.236;5.710;2024-03-23T13:56:28;9.80;99.90
18502;DHT22;68437;52.236;5.710;2024-03-23T13:58:56;10.30;99.90
18502;DHT22;68437;52.236;5.710;2024-03-23T14:01:23;10.20;99.90
18502;DHT22;68437;52.236;5.710;2024-03-23T14:03:50;10.40;99.90
18502;DHT22;68437;52.236;5.710;2024-03-23T14:06:16;10.60;99.90
18502;DHT22;68437;52.236;5.710;2024-03-23T14:08:43;10.40;99.90
18502;DHT22;68437;52.236;5.710;2024-03-23T14:11:09;10.20;99.90
18502;DHT22;68437;52.236;5.710;2024-03-23T14:13:36;9.60;99.90
18502;DHT22;68437;52.236;5.710;2024-03-23T14:16:06;8.90;99.90
18502;DHT22;68437;52.236;5.710;2024-03-23T14:18:33;8.30;99.90
18502;DHT22;68437;52.236;5.710;2024-03-23T14:21:00;7.90;99.90
18502;DHT22;68437;52.236;5.710;2024-03-23T14:23:28;8.00;99.90
18502;DHT22;68437;52.236;5.710;2024-03-23T14:25:55;8.10;99.90
18502;DHT22;68437;52.236;5.710;2024-03-23T14:28:22;8.10;99.90
18502;DHT22;68437;52.236;5.710;2024-03-23T14:30:48;8.30;99.90
18502;DHT22;68437;52.236;5.710;2024-03-23T14:33:17;8.60;99.90
18502;DHT22;68437;52.236;5.710;2024-03-23T14:35:51;8.80;99.90
18502;DHT22;68437;52.236;5.710;2024-03-23T14:38:18;9.10;99.90
18502;DHT22;68437;52.236;5.710;2024-03-23T14:40:44;9.30;99.90
18502;DHT22;68437;52.236;5.710;2024-03-23T14:43:11;9.60;99.90
18502;DHT22;68437;52.236;5.710;2024-03-23T14:45:36;9.90;99.90
18502;DHT22;68437;52.236;5.710;2024-03-23T14:48:04;10.00;99.90
18502;DHT22;68437;52.236;5.710;2024-03-23T14:50:31;10.20;99.90
18502;DHT22;68437;52.236;5.710;2024-03-23T14:53:00;10.40;99.90
18502;DHT22;68437;52.236;5.710;2024-03-23T14:55:26;10.40;99.90
18502;DHT22;68437;52.236;5.710;2024-03-23T14:57:54;10.40;99.90
18502;DHT22;68437;52.236;5.710;2024-03-23T15:00:20;10.30;99.90
18502;DHT22;68437;52.236;5.710;2024-03-23T15:02:46;10.30;99.90
18502;DHT22;68437;52.236;5.710;2024-03-23T15:05:12;10.00;99.90
18502;DHT22;68437;52.236;5.710;2024-03-23T15:07:41;9.90;99.90
18502;DHT22;68437;52.236;5.710;2024-03-23T15:10:08;9.80;99.90
18502;DHT22;68437;52.236;5.710;2024-03-23T15:12:35;9.70;99.90
18502;DHT22;68437;52.236;5.710;2024-03-23T15:15:03;9.40;99.90
18502;DHT22;68437;52.236;5.710;2024-03-23T15:17:29;9.30;99.90
18502;DHT22;68437;52.236;5.710;2024-03-23T15:20:00;9.30;99.90
18502;DHT22;68437;52.236;5.710;2024-03-23T15:22:27;9.30;99.90
18502;DHT22;68437;52.236;5.710;2024-03-23T15:24:55;9.20;99.90
18502;DHT22;68437;52.236;5.710;2024-03-23T15:27:20;9.00;99.90
18502;DHT22;68437;52.236;5.710;2024-03-23T15:29:47;9.00;99.90
18502;DHT22;68437;52.236;5.710;2024-03-23T15:32:13;8.90;99.90
18502;DHT22;68437;52.236;5.710;2024-03-23T15:34:43;8.70;99.90
18502;DHT22;68437;52.236;5.710;2024-03-23T15:37:08;8.70;99.90
18502;DHT22;68437;52.236;5.710;2024-03-23T15:39:35;8.70;99.90
18502;DHT22;68437;52.236;5.710;2024-03-23T15:42:03;8.60;99.90
18502;DHT22;68437;52.236;5.710;2024-03-23T15:44:31;8.50;99.90
18502;DHT22;68437;52.236;5.710;2024-03-23T15:46:56;7.80;99.90
18502;DHT22;68437;52.236;5.710;2024-03-23T15:49:23;7.20;99.90
18502;DHT22;68437;52.236;5.710;2024-03-23T15:51:49;7.00;99.90
18502;DHT22;68437;52.236;5.710;2024-03-23T15:54:16;7.00;99.90
18502;DHT22;68437;52.236;5.710;2024-03-23T15:56:42;7.30;99.90
18502;DHT22;68437;52.236;5.710;2024-03-23T15:59:10;7.50;99.90
18502;DHT22;68437;52.236;5.710;2024-03-23T16:01:36;7.50;99.90
18502;DHT22;68437;52.236;5.710;2024-03-23T16:04:04;7.50;99.90
18502;DHT22;68437;52.236;5.710;2024-03-23T16:06:30;7.60;99.90
18502;DHT22;68437;52.236;5.710;2024-03-23T16:08:57;7.60;99.90
18502;DHT22;68437;52.236;5.710;2024-03-23T16:11:23;7.70;99.90
18502;DHT22;68437;52.236;5.710;2024-03-23T16:13:49;7.90;99.90
18502;DHT22;68437;52.236;5.710;2024-03-23T16:16:17;7.90;99.90
18502;DHT22;68437;52.236;5.710;2024-03-23T16:18:47;7.90;99.90
18502;DHT22;68437;52.236;5.710;2024-03-23T16:21:13;7.80;99.90
18502;DHT22;68437;52.236;5.710;2024-03-23T16:23:40;7.70;99.90
18502;DHT22;68437;52.236;5.710;2024-03-23T16:26:07;7.70;99.90
18502;DHT22;68437;52.236;5.710;2024-03-23T16:28:36;7.60;99.90
18502;DHT22;68437;52.236;5.710;2024-03-23T16:31:02;7.60;99.90
18502;DHT22;68437;52.236;5.710;2024-03-23T16:33:31;7.50;99.90
18502;DHT22;68437;52.236;5.710;2024-03-23T16:35:58;7.50;99.90
18502;DHT22;68437;52.236;5.710;2024-03-23T16:38:25;7.40;99.90
18502;DHT22;68437;52.236;5.710;2024-03-23T16:40:55;7.40;99.90